Buckcreek, Iowa
Current Conditions -  °F | °C
As of 8:50 AM on Tuesday 21 Oct 2014 (Local Time) from KOLZ Reporting Station
Clear Clear  
Wind Chill: 38°   Ceiling: Unl
Heat Index: 41°   Visibility: 10mi
Dew Point: 39°   Wind: 5mph
Humidity: 93%   Direction: 60°ENE
Pressure: 30.19"   Gusts: NA
Location:  42.8281°N, 92.1565°W
Report Text: KOLZ 211350Z AUTO 06004KT 10SM CLR 05/04 A3019 RMK AO2
Loading
Personal Weather Stations






























Interactive Weather Map
Tropical Storm Tracking
New forecast layout! Learn more

10-Day Weather Forecast

Advertisements
Track Severe Weather on mobile